Time;durP1;ratioP1;P1;durP2;ratioP2;P2;SDS_P1;SDS_P2;PMS_P1;PMS_P2;Temp;Humidity;BMP_temperature;BMP_pressure;BME280_temperature;BME280_humidity;BME280_pressure;Samples;Min_cycle;Max_cycle;Signal;HPM_P1;HPM_P2
2021/09/11 00:00:43;;;;;;;16.20;13.40;;;19.60;93.70;;;;;;4933165;29;20498;-65
2021/09/11 00:03:09;;;;;;;15.32;13.73;;;19.60;93.70;;;;;;4936799;29;20043;-65
2021/09/11 00:05:35;;;;;;;18.92;13.43;;;19.60;93.70;;;;;;4933962;28;20657;-65
2021/09/11 00:08:01;;;;;;;16.08;13.15;;;19.60;93.70;;;;;;4935702;29;20046;-65
2021/09/11 00:10:27;;;;;;;15.40;13.52;;;19.60;93.70;;;;;;4934075;29;20051;-65
2021/09/11 00:12:53;;;;;;;14.55;13.02;;;19.50;93.70;;;;;;4933562;29;20070;-65
2021/09/11 00:15:19;;;;;;;15.82;14.23;;;19.50;93.60;;;;;;4931846;29;20067;-65
2021/09/11 00:17:47;;;;;;;14.52;12.95;;;19.50;93.60;;;;;;4935793;29;20490;-65
2021/09/11 00:20:13;;;;;;;15.68;13.52;;;19.50;93.60;;;;;;4933261;29;20086;-65
2021/09/11 00:22:38;;;;;;;15.57;13.88;;;19.40;93.60;;;;;;4934702;28;20092;-65
2021/09/11 00:25:05;;;;;;;16.05;14.38;;;19.50;93.70;;;;;;4933696;28;20771;-66
2021/09/11 00:27:31;;;;;;;15.52;13.82;;;19.40;93.60;;;;;;4932098;29;20028;-65
2021/09/11 00:29:56;;;;;;;16.63;13.55;;;19.40;93.60;;;;;;4936209;29;20169;-65
2021/09/11 00:32:22;;;;;;;14.70;12.98;;;19.40;93.60;;;;;;4933790;29;20032;-65
2021/09/11 00:34:47;;;;;;;14.50;12.75;;;19.40;93.50;;;;;;4933609;28;20082;-65
2021/09/11 00:37:13;;;;;;;15.80;13.63;;;19.40;93.50;;;;;;4934503;29;20198;-65
2021/09/11 00:39:39;;;;;;;17.85;13.98;;;19.40;93.50;;;;;;4933024;29;20054;-66
2021/09/11 00:42:05;;;;;;;20.50;13.80;;;19.40;93.60;;;;;;4930628;29;20456;-64
2021/09/11 00:44:31;;;;;;;16.05;13.70;;;19.30;93.50;;;;;;4933303;28;20822;-65
2021/09/11 00:46:56;;;;;;;16.23;13.85;;;19.30;93.50;;;;;;4935298;29;20476;-65
2021/09/11 00:49:22;;;;;;;14.93;13.30;;;19.30;93.50;;;;;;4933768;28;20746;-65
2021/09/11 00:51:48;;;;;;;14.93;12.38;;;19.30;93.50;;;;;;4933530;29;20032;-65
2021/09/11 00:54:15;;;;;;;16.73;12.48;;;19.20;93.50;;;;;;4933051;29;20040;-65
2021/09/11 00:56:41;;;;;;;16.60;14.02;;;19.20;93.50;;;;;;4934810;29;20114;-65
2021/09/11 00:59:06;;;;;;;17.27;14.10;;;19.20;93.50;;;;;;4935087;29;20127;-65
2021/09/11 01:01:32;;;;;;;15.15;13.27;;;19.20;93.60;;;;;;4934033;29;20090;-65
2021/09/11 01:03:58;;;;;;;16.45;13.70;;;19.20;93.60;;;;;;4932524;29;20035;-65
2021/09/11 01:06:24;;;;;;;16.60;13.13;;;19.20;93.60;;;;;;4933714;29;20111;-65
2021/09/11 01:08:52;;;;;;;16.48;13.23;;;19.20;93.60;;;;;;4933570;29;20045;-66
2021/09/11 01:11:18;;;;;;;16.27;14.13;;;19.20;93.50;;;;;;4932192;29;20093;-65
2021/09/11 01:13:44;;;;;;;15.13;13.48;;;19.20;93.50;;;;;;4933353;29;20039;-65
2021/09/11 01:16:09;;;;;;;17.60;14.52;;;19.20;93.50;;;;;;4938115;29;20914;-65
2021/09/11 01:18:35;;;;;;;16.60;13.95;;;19.10;93.50;;;;;;4932119;28;20037;-65
2021/09/11 01:21:01;;;;;;;15.98;13.82;;;19.10;93.50;;;;;;4932916;29;20175;-65
2021/09/11 01:23:28;;;;;;;16.73;14.18;;;19.10;93.60;;;;;;4931944;28;20043;-65
2021/09/11 01:25:54;;;;;;;14.88;13.30;;;19.10;93.60;;;;;;4932850;29;20459;-65
2021/09/11 01:28:20;;;;;;;15.57;13.90;;;19.10;93.50;;;;;;4931152;29;20889;-65
2021/09/11 01:30:47;;;;;;;16.40;13.77;;;19.10;93.60;;;;;;4933458;28;20053;-65
2021/09/11 01:33:13;;;;;;;18.25;14.73;;;19.10;93.50;;;;;;4933115;29;20031;-65
2021/09/11 01:35:39;;;;;;;16.83;14.10;;;19.10;93.60;;;;;;4934065;28;20038;-65
2021/09/11 01:38:05;;;;;;;15.45;13.48;;;19.10;93.50;;;;;;4933096;29;20039;-65
2021/09/11 01:40:31;;;;;;;15.57;12.82;;;19.10;93.50;;;;;;4947137;28;20053;-65
2021/09/11 01:42:57;;;;;;;16.30;14.55;;;19.10;93.50;;;;;;4931156;29;20035;-64
2021/09/11 01:45:23;;;;;;;16.92;14.45;;;19.10;93.60;;;;;;4931818;29;20050;-65
2021/09/11 01:47:49;;;;;;;17.20;14.07;;;19.00;93.60;;;;;;4931124;29;20034;-65
2021/09/11 01:50:18;;;;;;;15.85;14.20;;;19.00;93.50;;;;;;4932622;29;20028;-65
2021/09/11 01:52:44;;;;;;;16.85;14.00;;;19.00;93.50;;;;;;4931153;28;20095;-65
2021/09/11 01:55:11;;;;;;;17.50;14.75;;;19.00;93.50;;;;;;4933364;29;20040;-65
2021/09/11 01:57:38;;;;;;;16.85;14.23;;;19.00;93.50;;;;;;4932652;29;20031;-65
2021/09/11 02:00:09;;;;;;;16.02;13.50;;;19.00;93.50;;;;;;4931673;28;20035;-65
2021/09/11 02:02:36;;;;;;;17.80;14.85;;;19.00;93.50;;;;;;4930305;28;20612;-65
2021/09/11 02:05:02;;;;;;;16.85;14.05;;;19.00;93.50;;;;;;4935345;28;20821;-65
2021/09/11 02:07:27;;;;;;;16.27;13.95;;;19.00;93.50;;;;;;4933557;28;20138;-65
2021/09/11 02:09:53;;;;;;;16.42;14.30;;;19.00;93.50;;;;;;4932889;29;20571;-65
2021/09/11 02:12:19;;;;;;;15.50;13.82;;;18.90;93.60;;;;;;4931147;28;20054;-65
2021/09/11 02:14:44;;;;;;;21.65;15.02;;;18.90;93.50;;;;;;4931179;29;20119;-65
2021/09/11 02:17:10;;;;;;;17.67;14.93;;;18.90;93.60;;;;;;4931283;29;20206;-65
2021/09/11 02:19:36;;;;;;;17.02;15.30;;;18.90;93.60;;;;;;4931990;29;20039;-65
2021/09/11 02:22:05;;;;;;;14.70;13.15;;;18.90;93.60;;;;;;4929756;28;20215;-65
2021/09/11 02:24:30;;;;;;;16.25;14.55;;;18.90;93.60;;;;;;4931985;29;20035;-65
2021/09/11 02:26:57;;;;;;;15.98;14.13;;;18.90;93.60;;;;;;4932940;29;20046;-65
2021/09/11 02:29:24;;;;;;;15.88;14.18;;;18.90;93.60;;;;;;4930506;29;20050;-65
2021/09/11 02:31:50;;;;;;;15.68;13.88;;;18.90;93.50;;;;;;4932306;29;20039;-65
2021/09/11 02:34:16;;;;;;;17.90;15.43;;;19.00;93.50;;;;;;4932024;29;20698;-65
2021/09/11 02:36:41;;;;;;;17.83;13.93;;;19.00;93.60;;;;;;4932470;29;20038;-65
2021/09/11 02:39:07;;;;;;;16.02;14.18;;;19.00;93.60;;;;;;4931690;29;20020;-65
2021/09/11 02:41:34;;;;;;;17.92;14.93;;;19.00;93.60;;;;;;4929398;28;20547;-65
2021/09/11 02:44:03;;;;;;;16.90;14.13;;;18.90;93.60;;;;;;4945569;28;20130;-65
2021/09/11 02:46:30;;;;;;;15.32;13.68;;;19.00;93.70;;;;;;4931805;28;20718;-65
2021/09/11 02:49:00;;;;;;;13.20;11.13;;;19.00;93.60;;;;;;4932145;29;20043;-65
2021/09/11 02:51:26;;;;;;;12.65;11.35;;;19.00;93.60;;;;;;4929428;29;20077;-65
2021/09/11 02:53:52;;;;;;;13.48;12.07;;;19.00;93.40;;;;;;4931145;29;20515;-65
2021/09/11 02:56:18;;;;;;;13.25;11.35;;;19.00;93.60;;;;;;4932124;29;20039;-65
2021/09/11 02:58:44;;;;;;;10.85;9.07;;;19.00;93.20;;;;;;4931711;29;20054;-65
2021/09/11 03:01:09;;;;;;;9.18;8.02;;;19.00;93.10;;;;;;4933481;28;20480;-65
2021/09/11 03:03:36;;;;;;;9.35;8.45;;;19.00;92.90;;;;;;4930286;29;20043;-65
2021/09/11 03:06:02;;;;;;;10.57;7.85;;;19.00;92.90;;;;;;4929792;29;20560;-65
2021/09/11 03:08:27;;;;;;;11.80;8.52;;;19.00;92.80;;;;;;4932781;29;20063;-65
2021/09/11 03:10:53;;;;;;;10.05;8.95;;;19.00;92.70;;;;;;4929964;29;20027;-65
2021/09/11 03:13:19;;;;;;;10.05;8.75;;;19.00;92.70;;;;;;4935051;28;20519;-65
2021/09/11 03:15:45;;;;;;;11.20;8.82;;;19.00;92.70;;;;;;4935132;29;20043;-65
2021/09/11 03:18:11;;;;;;;10.45;9.00;;;19.00;92.60;;;;;;4935387;29;20081;-65
2021/09/11 03:20:37;;;;;;;11.20;8.02;;;19.00;92.50;;;;;;4933611;29;20075;-65
2021/09/11 03:23:04;;;;;;;10.23;8.07;;;19.00;92.30;;;;;;4935503;29;20066;-65
2021/09/11 03:25:30;;;;;;;9.77;8.75;;;18.90;92.20;;;;;;4933907;29;20047;-65
2021/09/11 03:27:56;;;;;;;11.07;9.38;;;18.90;92.30;;;;;;4934686;29;20500;-65
2021/09/11 03:30:22;;;;;;;11.80;9.38;;;18.90;92.40;;;;;;4937353;29;20039;-65
2021/09/11 03:32:48;;;;;;;10.20;9.00;;;18.80;92.60;;;;;;4935577;29;20031;-65
2021/09/11 03:35:14;;;;;;;10.40;9.30;;;18.80;92.60;;;;;;4947021;28;20050;-65
2021/09/11 03:37:39;;;;;;;11.75;9.45;;;18.80;92.60;;;;;;4944794;28;20039;-65
2021/09/11 03:40:06;;;;;;;10.57;9.00;;;18.80;92.60;;;;;;4953404;28;20050;-65
2021/09/11 03:42:32;;;;;;;10.52;9.43;;;18.80;92.70;;;;;;4939929;28;20031;-65
2021/09/11 03:44:58;;;;;;;10.85;8.73;;;18.80;92.70;;;;;;4942981;28;20581;-65
2021/09/11 03:47:24;;;;;;;9.55;8.43;;;18.80;92.60;;;;;;4944798;28;20484;-65
2021/09/11 03:49:49;;;;;;;10.30;9.30;;;18.80;92.60;;;;;;4942932;28;20800;-65
2021/09/11 03:52:15;;;;;;;12.75;11.45;;;18.80;92.60;;;;;;4935394;29;20774;-65
2021/09/11 03:54:40;;;;;;;13.60;11.88;;;18.90;92.90;;;;;;4934782;29;20046;-65
2021/09/11 03:57:06;;;;;;;14.95;12.82;;;18.90;93.10;;;;;;4936155;29;20039;-65
2021/09/11 03:59:32;;;;;;;20.75;16.05;;;19.00;93.20;;;;;;4935545;28;20043;-65
2021/09/11 04:01:58;;;;;;;21.88;18.48;;;19.00;93.30;;;;;;4938797;28;20070;-65
2021/09/11 04:04:23;;;;;;;18.95;15.60;;;19.10;93.60;;;;;;4935991;29;20032;-65
2021/09/11 04:06:49;;;;;;;20.27;15.90;;;19.10;93.50;;;;;;4942647;28;20027;-65
2021/09/11 04:09:14;;;;;;;19.17;15.82;;;19.20;93.60;;;;;;4936210;29;20472;-65
2021/09/11 04:11:40;;;;;;;17.77;15.70;;;19.20;93.80;;;;;;4936827;28;20725;-65
2021/09/11 04:14:06;;;;;;;21.02;16.85;;;19.30;93.60;;;;;;4937402;28;20043;-65
2021/09/11 04:16:32;;;;;;;19.83;14.75;;;19.30;93.50;;;;;;4942634;28;20031;-65
2021/09/11 04:18:57;;;;;;;19.42;16.02;;;19.40;93.50;;;;;;4940332;28;20074;-65
2021/09/11 04:21:23;;;;;;;17.85;15.68;;;19.40;93.50;;;;;;4939607;28;20100;-66
2021/09/11 04:23:49;;;;;;;19.98;15.13;;;19.50;93.40;;;;;;4936617;28;20048;-65
2021/09/11 04:26:14;;;;;;;17.77;15.85;;;19.50;93.40;;;;;;4933879;29;20138;-65
2021/09/11 04:28:40;;;;;;;18.70;15.95;;;19.50;93.40;;;;;;4941800;28;20046;-66
2021/09/11 04:31:06;;;;;;;18.00;15.85;;;19.50;93.40;;;;;;4936093;28;20171;-65
2021/09/11 04:33:32;;;;;;;19.17;15.60;;;19.50;93.40;;;;;;4935721;28;20480;-65
2021/09/11 04:35:57;;;;;;;19.20;15.20;;;19.50;93.40;;;;;;4939208;28;20042;-65
2021/09/11 04:38:23;;;;;;;18.33;15.25;;;19.60;93.50;;;;;;4937283;28;20055;-65
2021/09/11 04:40:49;;;;;;;15.80;14.10;;;19.60;93.40;;;;;;4936165;29;20043;-66
2021/09/11 04:43:15;;;;;;;13.93;12.43;;;19.60;93.40;;;;;;4938717;28;20082;-65
2021/09/11 04:45:40;;;;;;;13.63;12.13;;;19.60;93.20;;;;;;4934642;28;20034;-65
2021/09/11 04:48:06;;;;;;;14.65;12.15;;;19.60;93.10;;;;;;4933820;29;20062;-65
2021/09/11 04:50:32;;;;;;;14.68;12.43;;;19.60;93.10;;;;;;4937246;28;20051;-65
2021/09/11 04:52:57;;;;;;;13.38;12.07;;;19.60;93.10;;;;;;4942470;28;20127;-65
2021/09/11 04:55:23;;;;;;;14.35;12.27;;;19.60;93.20;;;;;;4938212;28;20145;-65
2021/09/11 04:57:49;;;;;;;15.82;13.73;;;19.60;93.20;;;;;;4934490;28;20915;-65
2021/09/11 05:00:15;;;;;;;17.77;14.60;;;19.60;93.20;;;;;;4932231;28;20038;-65
2021/09/11 05:02:41;;;;;;;15.27;13.43;;;19.60;93.30;;;;;;4941427;28;20043;-65
2021/09/11 05:05:07;;;;;;;15.95;14.25;;;19.60;93.30;;;;;;4933984;29;20037;-65
2021/09/11 05:07:34;;;;;;;15.90;12.98;;;19.70;93.30;;;;;;4938218;28;20030;-66
2021/09/11 05:10:00;;;;;;;15.25;13.63;;;19.70;93.30;;;;;;4939526;28;20087;-65
2021/09/11 05:12:25;;;;;;;14.88;13.27;;;19.80;93.40;;;;;;4937352;28;20071;-65
2021/09/11 05:14:51;;;;;;;19.90;14.23;;;19.80;93.40;;;;;;4940317;28;20070;-65
2021/09/11 05:17:17;;;;;;;16.05;14.25;;;19.80;93.30;;;;;;4939300;28;20047;-65
2021/09/11 05:19:42;;;;;;;15.98;14.13;;;19.90;93.30;;;;;;4943911;28;20074;-65
2021/09/11 05:22:08;;;;;;;18.13;13.43;;;19.90;93.30;;;;;;4937308;28;20063;-65
2021/09/11 05:24:34;;;;;;;15.52;13.93;;;19.90;93.20;;;;;;4933074;29;20039;-65
2021/09/11 05:27:00;;;;;;;18.13;14.63;;;19.90;93.20;;;;;;4933696;29;20039;-65
2021/09/11 05:29:25;;;;;;;15.20;13.70;;;20.00;93.30;;;;;;4937566;28;20074;-66
2021/09/11 05:31:51;;;;;;;16.35;14.05;;;20.00;93.30;;;;;;4930925;29;20032;-65
2021/09/11 05:34:17;;;;;;;15.70;13.77;;;20.00;93.20;;;;;;4936616;28;20038;-65
2021/09/11 05:36:43;;;;;;;15.38;13.80;;;20.00;93.20;;;;;;4942866;28;20125;-65
2021/09/11 05:39:09;;;;;;;20.15;14.68;;;20.10;93.20;;;;;;4938565;28;20114;-65
2021/09/11 05:41:35;;;;;;;15.48;13.75;;;20.10;93.10;;;;;;4934202;28;20039;-65
2021/09/11 05:44:01;;;;;;;15.38;13.30;;;20.10;93.10;;;;;;4933272;28;20035;-65
2021/09/11 05:46:27;;;;;;;17.85;14.15;;;20.10;93.10;;;;;;4937891;28;20722;-65
2021/09/11 05:48:52;;;;;;;18.20;14.10;;;20.20;93.10;;;;;;4930772;28;20039;-65
2021/09/11 05:51:18;;;;;;;16.02;14.32;;;20.20;93.00;;;;;;4935616;28;20126;-65
2021/09/11 05:53:44;;;;;;;14.98;13.20;;;20.20;93.00;;;;;;4949005;28;20462;-65
2021/09/11 05:56:09;;;;;;;16.90;14.20;;;20.20;93.00;;;;;;4932624;29;20492;-65
2021/09/11 05:58:35;;;;;;;15.88;14.18;;;20.20;92.90;;;;;;4931492;28;20039;-65
2021/09/11 06:01:01;;;;;;;15.23;13.52;;;20.30;93.00;;;;;;4936258;28;20408;-65
2021/09/11 06:03:26;;;;;;;16.08;13.15;;;20.30;92.90;;;;;;4935559;28;20624;-65
2021/09/11 06:05:52;;;;;;;14.93;13.32;;;20.40;92.80;;;;;;4935896;28;20603;-65
2021/09/11 06:08:18;;;;;;;18.45;14.18;;;20.50;92.70;;;;;;4937218;28;20838;-65
2021/09/11 06:10:43;;;;;;;16.67;14.88;;;20.50;92.70;;;;;;4931047;29;20032;-65
2021/09/11 06:13:09;;;;;;;18.20;14.68;;;20.50;92.60;;;;;;4932942;28;20155;-66
2021/09/11 06:15:35;;;;;;;18.30;14.57;;;20.50;92.60;;;;;;4931459;28;20510;-65
2021/09/11 06:18:01;;;;;;;16.52;14.82;;;20.60;92.60;;;;;;4930940;28;20560;-65
2021/09/11 06:20:28;;;;;;;16.25;14.40;;;20.60;92.40;;;;;;4930475;29;20035;-65
2021/09/11 06:22:53;;;;;;;17.38;13.75;;;20.60;92.30;;;;;;4930795;29;20370;-65
2021/09/11 06:25:19;;;;;;;16.95;13.73;;;20.60;92.30;;;;;;4934580;28;20031;-64
2021/09/11 06:27:45;;;;;;;17.35;14.30;;;20.60;92.40;;;;;;4932740;29;20483;-65
2021/09/11 06:30:12;;;;;;;15.10;13.52;;;20.70;92.40;;;;;;4934202;28;20059;-66
2021/09/11 06:32:38;;;;;;;23.48;14.63;;;20.70;92.40;;;;;;4933697;29;20122;-65
2021/09/11 06:35:05;;;;;;;16.33;14.10;;;20.80;92.40;;;;;;4928594;29;20125;-65
2021/09/11 06:37:32;;;;;;;14.95;13.32;;;20.80;92.30;;;;;;4939773;28;20548;-65
2021/09/11 06:39:58;;;;;;;15.40;13.68;;;20.90;92.30;;;;;;4934927;28;20043;-66
2021/09/11 06:42:23;;;;;;;16.65;14.82;;;20.90;92.10;;;;;;4930602;28;20790;-65
2021/09/11 06:44:49;;;;;;;18.42;14.73;;;21.00;92.00;;;;;;4931118;28;20047;-65
2021/09/11 06:47:15;;;;;;;18.98;16.98;;;21.10;91.80;;;;;;4930599;28;20049;-65
2021/09/11 06:49:41;;;;;;;15.52;13.70;;;21.10;91.70;;;;;;4934450;28;20570;-65
2021/09/11 06:52:08;;;;;;;19.02;15.15;;;21.00;91.70;;;;;;4929595;29;20824;-65
2021/09/11 06:54:34;;;;;;;21.52;14.73;;;21.00;91.80;;;;;;4933929;28;20031;-65
2021/09/11 06:57:00;;;;;;;15.18;13.43;;;21.00;91.80;;;;;;4933677;28;20442;-64
2021/09/11 06:59:25;;;;;;;15.70;14.07;;;21.00;91.90;;;;;;4938677;28;20046;-64
2021/09/11 07:01:51;;;;;;;19.05;14.73;;;21.10;91.90;;;;;;4936080;28;20034;-65
2021/09/11 07:04:17;;;;;;;18.27;14.02;;;21.00;92.00;;;;;;4931854;29;20861;-65
2021/09/11 07:06:43;;;;;;;18.63;14.50;;;21.00;91.90;;;;;;4936855;28;20077;-65
2021/09/11 07:09:08;;;;;;;15.38;13.48;;;21.00;92.00;;;;;;4929825;28;20035;-65
2021/09/11 07:11:34;;;;;;;15.45;12.93;;;21.00;91.90;;;;;;4931914;29;20023;-65
2021/09/11 07:13:59;;;;;;;14.98;13.38;;;21.00;92.00;;;;;;4935743;28;20036;-67
2021/09/11 07:16:25;;;;;;;14.80;12.93;;;21.00;92.10;;;;;;4937320;28;20039;-69
2021/09/11 07:18:51;;;;;;;14.70;12.55;;;21.00;92.20;;;;;;4929235;29;20039;-69
2021/09/11 07:21:17;;;;;;;14.25;12.75;;;21.00;92.30;;;;;;4930438;28;20067;-68
2021/09/11 07:23:43;;;;;;;14.55;13.02;;;21.00;92.30;;;;;;4954360;28;20035;-68
2021/09/11 07:26:08;;;;;;;16.20;13.57;;;21.00;92.30;;;;;;4935260;28;20041;-69
2021/09/11 07:28:34;;;;;;;16.42;13.68;;;21.10;92.40;;;;;;4940124;28;20031;-69
2021/09/11 07:31:00;;;;;;;16.05;14.35;;;21.10;92.40;;;;;;4932356;28;20044;-69
2021/09/11 07:33:27;;;;;;;16.65;14.93;;;21.10;92.50;;;;;;4935128;28;20027;-69
2021/09/11 07:35:52;;;;;;;18.92;15.80;;;21.20;92.40;;;;;;4935916;28;20043;-70
2021/09/11 07:38:18;;;;;;;22.17;17.40;;;21.30;92.50;;;;;;4935578;28;20037;-68
2021/09/11 07:40:44;;;;;;;20.33;16.70;;;21.40;92.20;;;;;;4942516;28;20521;-68
2021/09/11 07:43:11;;;;;;;20.90;16.08;;;21.40;92.00;;;;;;4944031;28;20484;-68
2021/09/11 07:45:39;;;;;;;18.52;15.40;;;21.40;92.10;;;;;;4942052;28;20035;-68
2021/09/11 07:48:06;;;;;;;19.50;16.48;;;21.60;92.40;;;;;;4936300;28;20036;-68
2021/09/11 07:50:35;;;;;;;23.33;18.08;;;21.70;92.20;;;;;;4944409;28;20062;-68
2021/09/11 07:53:02;;;;;;;21.83;16.95;;;21.90;91.70;;;;;;4932437;28;20047;-68
2021/09/11 07:55:28;;;;;;;23.63;17.42;;;22.10;91.00;;;;;;4942469;28;20042;-69
2021/09/11 07:57:54;;;;;;;21.38;15.30;;;22.10;91.30;;;;;;4937986;28;20106;-68
2021/09/11 08:00:20;;;;;;;19.25;13.70;;;22.10;91.00;;;;;;4937231;28;20047;-68
2021/09/11 08:02:45;;;;;;;18.05;13.95;;;22.20;90.90;;;;;;4934721;28;20070;-68
2021/09/11 08:05:12;;;;;;;16.45;12.85;;;22.40;90.40;;;;;;4936368;29;20042;-68
2021/09/11 08:07:38;;;;;;;17.60;14.40;;;22.50;90.50;;;;;;4939364;28;20024;-68
2021/09/11 08:10:04;;;;;;;15.10;13.25;;;22.60;90.40;;;;;;4938245;28;20487;-69
2021/09/11 08:12:30;;;;;;;16.42;13.35;;;22.70;90.40;;;;;;4940541;28;20056;-69
2021/09/11 08:14:55;;;;;;;16.48;13.98;;;22.70;90.20;;;;;;4937592;28;20094;-69
2021/09/11 08:17:21;;;;;;;15.52;12.75;;;22.70;90.20;;;;;;4938457;28;20058;-68
2021/09/11 08:19:47;;;;;;;19.65;14.07;;;22.70;90.00;;;;;;4934750;29;20878;-68
2021/09/11 08:22:12;;;;;;;15.77;12.77;;;22.70;88.90;;;;;;4942591;28;20760;-70
2021/09/11 08:24:38;;;;;;;16.52;12.95;;;22.80;89.30;;;;;;4947245;28;20121;-69
2021/09/11 08:27:04;;;;;;;15.25;12.18;;;22.80;89.60;;;;;;4948389;28;20039;-70
2021/09/11 08:29:30;;;;;;;17.00;13.77;;;22.90;88.90;;;;;;4942140;28;20036;-69
2021/09/11 08:31:55;;;;;;;18.38;13.68;;;22.90;88.40;;;;;;4938598;28;20070;-70
2021/09/11 08:34:21;;;;;;;20.02;14.15;;;23.00;87.60;;;;;;4941397;28;20046;-70
2021/09/11 08:36:47;;;;;;;15.65;13.73;;;23.00;87.10;;;;;;4943065;28;20035;-69
2021/09/11 08:39:12;;;;;;;13.38;11.98;;;23.00;87.60;;;;;;4935011;29;20043;-69
2021/09/11 08:41:38;;;;;;;14.35;12.82;;;23.00;87.60;;;;;;4937787;28;20138;-69
2021/09/11 08:44:04;;;;;;;13.50;11.13;;;23.10;87.90;;;;;;4940802;28;20042;-70
2021/09/11 08:46:30;;;;;;;14.50;12.32;;;23.10;87.60;;;;;;4936774;28;20582;-70
2021/09/11 08:48:57;;;;;;;14.73;12.45;;;23.20;87.10;;;;;;4933634;29;20119;-68
2021/09/11 08:51:25;;;;;;;14.77;12.35;;;23.30;87.10;;;;;;4938885;28;20070;-77
2021/09/11 08:53:51;;;;;;;15.75;13.52;;;23.30;86.40;;;;;;4947938;28;20044;-69
2021/09/11 08:56:17;;;;;;;12.77;11.07;;;23.40;86.20;;;;;;4930153;28;20041;-71
2021/09/11 08:58:45;;;;;;;15.18;11.85;;;23.50;85.90;;;;;;4939888;28;20836;-68
2021/09/11 09:01:11;;;;;;;18.90;14.65;;;23.60;85.30;;;;;;4933150;28;20035;-69
2021/09/11 09:03:43;;;;;;;17.15;13.30;;;23.70;84.70;;;;;;4939524;28;20099;-68
2021/09/11 09:06:19;;;;;;;15.05;12.45;;;23.80;83.00;;;;;;4934518;28;20112;-68
2021/09/11 09:08:50;;;;;;;17.20;14.43;;;23.70;83.70;;;;;;4930492;28;20399;-68
2021/09/11 09:11:30;;;;;;;17.85;12.82;;;23.70;82.90;;;;;;4929143;28;20043;-68
2021/09/11 09:14:14;;;;;;;15.38;13.05;;;23.60;83.50;;;;;;4934998;28;20063;-77
2021/09/11 09:16:46;;;;;;;14.48;12.88;;;23.60;84.60;;;;;;4938613;28;20039;-73
2021/09/11 09:19:11;;;;;;;14.98;11.75;;;23.60;84.10;;;;;;4939226;28;20035;-76
2021/09/11 09:21:38;;;;;;;12.15;10.70;;;23.80;85.20;;;;;;4938979;28;20035;-76
2021/09/11 09:24:07;;;;;;;14.82;11.00;;;24.00;84.80;;;;;;4934047;29;20042;-69
2021/09/11 09:26:55;;;;;;;11.05;9.57;;;24.20;83.30;;;;;;4932522;28;20819;-69
2021/09/11 09:29:22;;;;;;;9.93;8.93;;;24.20;81.80;;;;;;4938536;28;20035;-69
2021/09/11 09:31:56;;;;;;;11.40;9.43;;;24.20;81.60;;;;;;4932690;29;20027;-68
2021/09/11 09:34:30;;;;;;;11.75;9.50;;;24.20;82.90;;;;;;4936059;28;20550;-68
2021/09/11 09:36:57;;;;;;;10.55;9.43;;;24.10;81.40;;;;;;4935899;28;20035;-68
2021/09/11 09:39:24;;;;;;;13.27;9.60;;;24.00;82.50;;;;;;4936249;28;20194;-75
2021/09/11 09:41:52;;;;;;;10.55;9.45;;;23.80;83.30;;;;;;4938075;28;20150;-73
2021/09/11 09:44:20;;;;;;;13.45;8.85;;;23.70;83.20;;;;;;4930634;29;20023;-68
2021/09/11 09:46:49;;;;;;;9.45;8.45;;;23.50;83.40;;;;;;4938249;28;20138;-68
2021/09/11 09:49:23;;;;;;;9.68;8.77;;;23.40;84.70;;;;;;4930509;28;20504;-69
2021/09/11 09:51:50;;;;;;;11.40;10.18;;;23.40;85.10;;;;;;4939257;28;20032;-69
2021/09/11 09:54:17;;;;;;;11.43;10.02;;;23.50;83.40;;;;;;4937984;28;20055;-69
2021/09/11 09:56:43;;;;;;;11.85;10.00;;;23.50;84.20;;;;;;4936988;28;20035;-68
2021/09/11 09:59:10;;;;;;;14.88;10.45;;;23.60;85.20;;;;;;4934956;28;20039;-68
2021/09/11 10:01:37;;;;;;;9.23;8.25;;;23.80;82.00;;;;;;4932890;29;20262;-69
2021/09/11 10:04:17;;;;;;;10.35;7.82;;;23.90;81.70;;;;;;4933180;28;20043;-69
2021/09/11 10:06:46;;;;;;;11.07;7.28;;;24.10;81.30;;;;;;4933369;28;20027;-68
2021/09/11 10:09:14;;;;;;;8.68;7.68;;;24.30;81.10;;;;;;4932488;28;20038;-68
2021/09/11 10:11:50;;;;;;;9.75;7.70;;;24.50;80.20;;;;;;4940751;28;20043;-68
2021/09/11 10:14:16;;;;;;;;;;;24.70;77.40;;;;;;4936837;28;20827;-68
2021/09/11 10:16:43;;;;;;;;;;;24.80;78.40;;;;;;4933148;28;20283;-69
2021/09/11 10:19:16;;;;;;;9.48;6.25;;;24.80;78.20;;;;;;4942924;28;20737;-68
2021/09/11 10:21:42;;;;;;;8.02;5.95;;;24.80;78.30;;;;;;4933162;29;20035;-68
2021/09/11 10:24:13;;;;;;;6.28;5.65;;;24.80;78.40;;;;;;4932184;28;20042;-68
2021/09/11 10:26:46;;;;;;;6.93;5.80;;;24.80;78.50;;;;;;4931985;29;20063;-69
2021/09/11 10:29:31;;;;;;;9.55;5.82;;;24.70;80.20;;;;;;4935022;28;20035;-70
2021/09/11 10:32:18;;;;;;;11.48;9.88;;;24.80;79.70;;;;;;4930074;29;20039;-69
2021/09/11 10:34:46;;;;;;;;;;;24.80;76.60;;;;;;4940696;28;20418;-69
2021/09/11 10:37:13;;;;;;;9.98;7.45;;;24.90;75.40;;;;;;4933830;28;19964;-68
2021/09/11 10:39:38;;;;;;;7.57;6.22;;;24.80;75.70;;;;;;4936925;28;20051;-70
2021/09/11 10:42:06;;;;;;;7.88;5.68;;;24.80;75.10;;;;;;4932230;29;20035;-69
2021/09/11 10:44:32;;;;;;;8.82;6.78;;;24.70;75.80;;;;;;4929671;29;20418;-69
2021/09/11 10:46:58;;;;;;;7.65;6.70;;;24.80;75.70;;;;;;4934367;28;20039;-69
2021/09/11 10:49:32;;;;;;;7.00;6.30;;;24.70;75.50;;;;;;4933406;28;20031;-68
2021/09/11 10:52:06;;;;;;;9.35;6.93;;;24.70;75.50;;;;;;4940043;28;20452;-69
2021/09/11 10:54:33;;;;;;;7.78;6.28;;;24.60;75.50;;;;;;4933222;28;20705;-69
2021/09/11 10:56:58;;;;;;;6.95;5.97;;;24.70;75.50;;;;;;4929047;29;20031;-70
2021/09/11 10:59:26;;;;;;;7.50;6.80;;;24.60;74.80;;;;;;4933523;28;20039;-69
2021/09/11 11:02:11;;;;;;;5.90;5.22;;;24.60;75.70;;;;;;4930848;28;20525;-70
2021/09/11 11:04:49;;;;;;;13.27;5.43;;;24.70;75.90;;;;;;4935196;28;20066;-67
2021/09/11 11:07:21;;;;;;;7.18;5.60;;;24.70;75.40;;;;;;4932307;28;20423;-67
2021/09/11 11:09:52;;;;;;;7.53;5.25;;;24.70;75.00;;;;;;4943665;28;20039;-67
2021/09/11 11:12:20;;;;;;;9.18;6.65;;;24.60;75.30;;;;;;4940516;28;20031;-67
2021/09/11 11:14:46;;;;;;;12.25;7.90;;;24.60;76.60;;;;;;4939443;28;20035;-69
2021/09/11 11:17:14;;;;;;;13.85;7.88;;;24.60;76.10;;;;;;4932830;28;20046;-69
2021/09/11 11:19:45;;;;;;;10.93;7.18;;;24.60;76.80;;;;;;4942276;28;20711;-69
2021/09/11 11:22:13;;;;;;;10.88;6.95;;;24.50;78.10;;;;;;4939013;28;20499;-70
2021/09/11 11:24:44;;;;;;;7.68;5.72;;;24.60;77.20;;;;;;4931298;28;20039;-69
2021/09/11 11:27:17;;;;;;;8.25;5.65;;;24.60;75.60;;;;;;4931443;29;20206;-69
2021/09/11 11:29:44;;;;;;;7.28;5.95;;;24.60;75.80;;;;;;4930802;28;20035;-70
2021/09/11 11:32:10;;;;;;;8.02;6.68;;;24.70;75.90;;;;;;4937838;28;20106;-69
2021/09/11 11:34:37;;;;;;;11.70;7.45;;;24.70;77.10;;;;;;4936529;28;20638;-70
2021/09/11 11:37:05;;;;;;;14.82;8.30;;;24.80;75.40;;;;;;4945091;28;20150;-69
2021/09/11 11:39:35;;;;;;;13.05;8.82;;;24.80;75.00;;;;;;4935037;28;20039;-69
2021/09/11 11:42:13;;;;;;;10.93;7.07;;;24.80;77.70;;;;;;4935821;28;20651;-69
2021/09/11 11:44:44;;;;;;;6.97;4.57;;;24.90;76.80;;;;;;4933304;28;20090;-73
2021/09/11 11:47:28;;;;;;;5.60;4.97;;;24.90;75.90;;;;;;4938819;28;20043;-73
2021/09/11 11:49:54;;;;;;;5.88;4.63;;;24.90;75.10;;;;;;4932458;29;20036;-73
2021/09/11 11:52:20;;;;;;;6.13;4.57;;;24.90;74.50;;;;;;4937627;28;20119;-71
2021/09/11 11:54:48;;;;;;;4.50;3.90;;;25.00;72.40;;;;;;4932872;28;20047;-71
2021/09/11 11:57:16;;;;;;;4.80;3.92;;;25.00;72.80;;;;;;4936990;28;20259;-69
2021/09/11 11:59:43;;;;;;;6.00;4.15;;;25.00;72.60;;;;;;4934209;28;20087;-71
2021/09/11 12:02:24;;;;;;;5.35;3.75;;;25.00;74.80;;;;;;4937365;28;20204;-73
2021/09/11 12:04:51;;;;;;;4.93;4.15;;;25.10;72.80;;;;;;4938635;28;20035;-73
2021/09/11 12:07:32;;;;;;;4.90;4.50;;;25.10;72.10;;;;;;4940579;28;20950;-71
2021/09/11 12:10:02;;;;;;;5.03;4.35;;;25.20;72.70;;;;;;4937006;28;20155;-72
2021/09/11 12:12:51;;;;;;;5.10;4.63;;;25.20;72.10;;;;;;4933632;28;20071;-69
2021/09/11 12:15:23;;;;;;;6.13;4.55;;;25.20;73.00;;;;;;4936256;28;20035;-71
2021/09/11 12:17:56;;;;;;;4.47;3.92;;;25.20;73.00;;;;;;4938928;28;20039;-73
2021/09/11 12:20:23;;;;;;;5.82;4.00;;;25.10;72.20;;;;;;4938271;28;20075;-74
2021/09/11 12:23:22;;;;;;;3.97;3.65;;;25.00;73.00;;;;;;4935602;28;20728;-73
2021/09/11 12:25:52;;;;;;;5.85;3.92;;;24.90;73.00;;;;;;4937060;28;20125;-72
2021/09/11 12:28:36;;;;;;;4.80;4.28;;;24.70;75.50;;;;;;4939967;28;20049;-72
2021/09/11 12:31:06;;;;;;;8.70;4.00;;;24.70;77.00;;;;;;4936711;28;20776;-73
2021/09/11 12:33:48;;;;;;;4.45;4.05;;;24.80;76.10;;;;;;4936814;28;20047;-74